Station: EBLG - 19/04/2018 09:20Z (il y a 33 minutes)
EBLG 190920Z 15009G21KT 120V180 CAVOK 24/06 Q1027 NOSIG
Vent du 150º - 9 kt - rafales 21 kt (vent de direction variable de 120º à 180º)
Visibilité > 10 km et plafond haut ou pas de nuages significatifs
Température: +24ºC - Point de rosée: +06ºC - QNH: 1027 hPa
Pas de changement significatif prévu dans les 2 heures qui suivent l'observation